Kasagimaru — JJ3905 — position and weather

sailwx.info

Track history (hours):
 
Tides and Currents Weather Stations Pressure Air Temp Water Temp Dewpoint Dewpoint Depression Visibility Wind Speed Wind Dir Waves Ship Positions

Kasagimaru

Last reported at 2018-Apr-23 09:25 UTC. Time now 2018-Apr-23 09:44 UTC.
Position N 34°33' E 135°27'.

Length 42 m; draft 3.5 m.

Type: Tug. MMSI: 431300268.

Date/timePositionNaut miles runAvg speedWind from/ knotsBaromVisibWave heightAir tempDewpointWater temp
2018-Apr-23 09:25N 34°33' E 135°27'0 0.0
2018-Apr-23 08:58N 34°33' E 135°27'0 0.0
2018-Apr-23 08:31N 34°33' E 135°27'0 0.0
2018-Apr-23 08:00N 34°33' E 135°27'4 7.8
2018-Apr-23 07:30N 34°36' E 135°23'2 4.1
2018-Apr-23 07:00N 34°38' E 135°25'0 0.0
2018-Apr-23 06:30N 34°38' E 135°25'1 1.2
2018-Apr-23 06:00N 34°38' E 135°24'0 0.0
2018-Apr-23 05:30N 34°38' E 135°24'0 0.4
2018-Apr-23 05:00N 34°38' E 135°24'1 2.3
2018-Apr-23 04:30N 34°39' E 135°24'2 4.9
2018-Apr-23 04:00N 34°36' E 135°23'4 8.7
2018-Apr-23 03:30N 34°33' E 135°27'0 0.1
2018-Apr-23 02:59N 34°33' E 135°27'0 0.0
2018-Apr-23 02:29N 34°33' E 135°27'0 0.0
2018-Apr-23 01:59N 34°33' E 135°27'0 0.0
2018-Apr-23 01:29N 34°33' E 135°27'0 0.0
2018-Apr-23 00:59N 34°33' E 135°27'0 0.0
2018-Apr-23 00:26N 34°33' E 135°27'0 0.0
2018-Apr-22 23:59N 34°33' E 135°27'0 0.0
2018-Apr-22 23:29N 34°33' E 135°27'0 0.0
2018-Apr-22 22:59N 34°33' E 135°27'0 0.0
2018-Apr-22 22:26N 34°33' E 135°27'0 0.0
2018-Apr-22 21:59N 34°33' E 135°27'0 0.0
2018-Apr-22 21:29N 34°33' E 135°27'0 0.0
2018-Apr-22 20:59N 34°33' E 135°27'0 0.0
2018-Apr-22 20:29N 34°33' E 135°27'0 0.0
2018-Apr-22 19:56N 34°33' E 135°27'0 0.0
2018-Apr-22 19:29N 34°33' E 135°27'0 0.0
2018-Apr-22 18:59N 34°33' E 135°27'0 0.0
2018-Apr-22 18:29N 34°33' E 135°27'0 0.0
2018-Apr-22 17:59N 34°33' E 135°27'0 0.0
2018-Apr-22 17:29N 34°33' E 135°27'0 0.0
2018-Apr-22 16:56N 34°33' E 135°27'0 0.0
2018-Apr-22 16:29N 34°33' E 135°27'0 0.0
2018-Apr-22 15:59N 34°33' E 135°27'0 0.0
2018-Apr-22 15:29N 34°33' E 135°27'0 0.0
2018-Apr-22 14:59N 34°33' E 135°27'0 0.0
2018-Apr-22 14:29N 34°33' E 135°27'0 0.0
2018-Apr-22 13:59N 34°33' E 135°27'0 0.0
2018-Apr-22 13:29N 34°33' E 135°27'0 0.0
2018-Apr-22 12:59N 34°33' E 135°27'0 0.0
2018-Apr-22 12:29N 34°33' E 135°27'0 0.0
2018-Apr-22 11:59N 34°33' E 135°27'0 0.0
2018-Apr-22 11:29N 34°33' E 135°27'0 0.0
2018-Apr-22 10:59N 34°33' E 135°27'0 0.0
2018-Apr-22 10:29N 34°33' E 135°27'0 0.0
2018-Apr-22 09:59N 34°33' E 135°27'0 0.0
2018-Apr-22 09:29N 34°33' E 135°27'0 0.0
2018-Apr-22 08:59N 34°33' E 135°27'0 0.0
2018-Apr-22 08:29N 34°33' E 135°27'0 0.0
2018-Apr-22 07:59N 34°33' E 135°27'0 0.0
2018-Apr-22 07:29N 34°33' E 135°27'0 0.0
2018-Apr-22 06:59N 34°33' E 135°27'0 0.0
2018-Apr-22 06:29N 34°33' E 135°27'0 0.0
2018-Apr-22 05:59N 34°33' E 135°27'0 0.0
2018-Apr-22 05:26N 34°33' E 135°27'0 0.0
2018-Apr-22 04:59N 34°33' E 135°27'0 0.0
2018-Apr-22 04:29N 34°33' E 135°27'0 0.0
2018-Apr-22 03:59N 34°33' E 135°27'0 0.0
2018-Apr-22 03:29N 34°33' E 135°27'0 0.0
2018-Apr-22 02:59N 34°33' E 135°27'0 0.0
2018-Apr-22 02:29N 34°33' E 135°27'0 0.0
2018-Apr-22 01:56N 34°33' E 135°27'0 0.0
2018-Apr-22 01:29N 34°33' E 135°27'0 0.0
2018-Apr-22 00:56N 34°33' E 135°27'2 3.6
2018-Apr-22 00:30N 34°33' E 135°25'1 1.7
2018-Apr-22 00:00N 34°33' E 135°25'0 0.4
2018-Apr-21 23:30N 34°33' E 135°25'1 2.5
2018-Apr-21 22:59N 34°33' E 135°27'0 0.0
2018-Apr-21 22:30N 34°33' E 135°27'0 0.0
2018-Apr-21 21:59N 34°33' E 135°27'0 0.0
2018-Apr-21 21:23N 34°33' E 135°27'0 0.0
2018-Apr-21 20:59N 34°33' E 135°27'0 0.0
2018-Apr-21 20:29N 34°33' E 135°27'0 0.0
2018-Apr-21 19:56N 34°33' E 135°27'0 0.0
2018-Apr-21 19:26N 34°33' E 135°27'0 0.0
2018-Apr-21 18:59N 34°33' E 135°27'0 0.0
2018-Apr-21 18:29N 34°33' E 135°27'0 0.0
2018-Apr-21 17:59N 34°33' E 135°27'0 0.0
2018-Apr-21 17:29N 34°33' E 135°27'0 0.0
2018-Apr-21 16:59N 34°33' E 135°27'0 0.0
2018-Apr-21 16:29N 34°33' E 135°27'0 0.0
2018-Apr-21 15:59N 34°33' E 135°27'0 0.0
2018-Apr-21 15:29N 34°33' E 135°27'0 0.0
2018-Apr-21 14:59N 34°33' E 135°27'0 0.0
2018-Apr-21 14:29N 34°33' E 135°27'0 0.0
2018-Apr-21 13:59N 34°33' E 135°27'0 0.0
2018-Apr-21 13:29N 34°33' E 135°27'0 0.0
2018-Apr-21 12:59N 34°33' E 135°27'0 0.0
2018-Apr-21 12:29N 34°33' E 135°27'0 0.0
2018-Apr-21 11:59N 34°33' E 135°27'0 0.0
2018-Apr-21 11:29N 34°33' E 135°27'0 0.0
2018-Apr-21 10:59N 34°33' E 135°27'0 0.0
2018-Apr-21 10:29N 34°33' E 135°27'0 0.0
2018-Apr-21 09:59N 34°33' E 135°27'0 0.0
2018-Apr-21 09:29N 34°33' E 135°27'1 1.1
2018-Apr-21 09:00N 34°33' E 135°26'611.3
2018-Apr-21 08:30N 34°31' E 135°20'612.1
2018-Apr-21 08:01N 34°28' E 135°14'611.8
2018-Apr-21 07:30N 34°24' E 135°08'611.9
2018-Apr-21 07:00N 34°20' E 135°03'510.9
2018-Apr-21 06:31N 34°16' E 134°59'713.6
2018-Apr-21 06:00N 34°23' E 135°00'612.4
2018-Apr-21 05:31N 34°28' E 135°04'511.0
2018-Apr-21 05:00N 34°33' E 135°07'4 8.7
2018-Apr-21 04:31N 34°36' E 135°03'611.3
2018-Apr-21 04:00N 34°36' E 134°57'714.2
2018-Apr-21 03:30N 34°33' E 134°49'611.2
2018-Apr-21 03:00N 34°34' E 134°42'613.0
2018-Apr-21 02:31N 34°41' E 134°41'5 9.8
2018-Apr-21 02:00N 34°46' E 134°41'0 0.5
2018-Apr-21 01:30N 34°46' E 134°41'1 2.2
2018-Apr-21 00:55N 34°46' E 134°40'1 0.1
2018-Apr-20 14:22N 34°47' E 134°39'0 0.0
2018-Apr-20 13:52N 34°47' E 134°39'0 0.0
2018-Apr-20 12:27N 34°47' E 134°39'0 0.0
2018-Apr-20 04:19N 34°47' E 134°39'2 1.6
2018-Apr-20 03:04N 34°46' E 134°41'1 3.6
2018-Apr-20 02:51N 34°45' E 134°41'2 5.4
2018-Apr-20 02:30N 34°43' E 134°41'612.1
2018-Apr-20 02:00N 34°37' E 134°42'510.3
2018-Apr-20 01:30N 34°34' E 134°47'713.8
2018-Apr-20 01:00N 34°36' E 134°55'611.6
2018-Apr-20 00:30N 34°37' E 135°02'510.0
2018-Apr-20 00:00N 34°36' E 135°07'3 6.3
2018-Apr-19 23:30N 34°33' E 135°10'5 9.9
2018-Apr-19 23:00N 34°29' E 135°07'612.2
2018-Apr-19 22:30N 34°23' E 135°03'510.9
2018-Apr-19 22:00N 34°18' E 135°00'5 9.3
2018-Apr-19 21:30N 34°14' E 134°60'3 6.8
2018-Apr-19 21:00N 34°11' E 135°02'612.2
2018-Apr-19 20:31N 34°13' E 135°09'0 0.0
2018-Apr-19 20:00N 34°13' E 135°09'0 0.0
2018-Apr-19 19:30N 34°13' E 135°09'0 0.0
2018-Apr-19 19:00N 34°13' E 135°09'0 0.0
2018-Apr-19 18:30N 34°13' E 135°09'0 0.0
2018-Apr-19 18:00N 34°13' E 135°09'0 0.0
2018-Apr-19 17:30N 34°13' E 135°09'0 0.0
2018-Apr-19 17:00N 34°13' E 135°09'0 0.0
2018-Apr-19 16:30N 34°13' E 135°09'0 0.0
2018-Apr-19 16:00N 34°13' E 135°09'0 0.0
2018-Apr-19 15:30N 34°13' E 135°09'0 0.0
2018-Apr-19 15:00N 34°13' E 135°09'0 0.0
2018-Apr-19 14:30N 34°13' E 135°09'0 0.0
2018-Apr-19 14:00N 34°13' E 135°09'0 0.0
2018-Apr-19 13:30N 34°13' E 135°09'0 0.0
2018-Apr-19 13:00N 34°13' E 135°09'0 0.0
2018-Apr-19 12:30N 34°13' E 135°09'0 0.0
2018-Apr-19 12:00N 34°13' E 135°09'0 0.0
2018-Apr-19 11:30N 34°13' E 135°09'0 0.0
2018-Apr-19 11:00N 34°13' E 135°09'0 0.0
2018-Apr-19 10:30N 34°13' E 135°09'0 0.0
2018-Apr-19 10:00N 34°13' E 135°09'0 0.0
2018-Apr-19 09:30N 34°13' E 135°09'0 0.0
2018-Apr-19 09:01N 34°13' E 135°09'0 0.0
2018-Apr-19 08:30N 34°13' E 135°09'0 0.0
2018-Apr-19 08:00N 34°13' E 135°09'0 0.0
2018-Apr-19 07:30N 34°13' E 135°09'0 0.0
2018-Apr-19 07:00N 34°13' E 135°09'0 0.0
2018-Apr-19 06:30N 34°13' E 135°09'0 0.0
2018-Apr-19 06:00N 34°13' E 135°09'0 0.0
2018-Apr-19 05:30N 34°13' E 135°09'0 0.0
2018-Apr-19 05:00N 34°13' E 135°09'0 0.0
2018-Apr-19 04:31N 34°13' E 135°09'5 9.1
2018-Apr-19 04:01N 34°15' E 135°04'612.2
2018-Apr-19 03:31N 34°20' E 135°07'612.8
2018-Apr-19 03:00N 34°24' E 135°13'612.4
2018-Apr-19 02:31N 34°28' E 135°19'5 9.9
2018-Apr-19 02:01N 34°31' E 135°23'2 4.5
2018-Apr-19 01:31N 34°33' E 135°25'2 3.3
2018-Apr-19 01:00N 34°33' E 135°27'0 0.0
2018-Apr-19 00:29N 34°33' E 135°27'0 0.0
2018-Apr-19 00:00N 34°33' E 135°27'0 0.0
2018-Apr-18 23:30N 34°33' E 135°27'0 0.0
2018-Apr-18 23:01N 34°33' E 135°27'0 0.0
2018-Apr-18 22:28N 34°33' E 135°27'0 0.0
2018-Apr-18 21:58N 34°33' E 135°27'0 0.0
2018-Apr-18 21:19N 34°33' E 135°27'0 0.0
2018-Apr-18 20:58N 34°33' E 135°27'0 0.0
2018-Apr-18 20:28N 34°33' E 135°27'0 0.0
2018-Apr-18 19:58N 34°33' E 135°27'0 0.0
2018-Apr-18 19:28N 34°33' E 135°27'0 0.0
2018-Apr-18 18:58N 34°33' E 135°27'0 0.0
2018-Apr-18 18:28N 34°33' E 135°27'0 0.0
2018-Apr-18 17:58N 34°33' E 135°27'0 0.0
2018-Apr-18 17:28N 34°33' E 135°27'0 0.0
2018-Apr-18 16:58N 34°33' E 135°27'0 0.0
2018-Apr-18 16:28N 34°33' E 135°27'0 0.0
2018-Apr-18 16:01N 34°33' E 135°27'0 0.0
2018-Apr-18 15:28N 34°33' E 135°27'0 0.0
2018-Apr-18 15:01N 34°33' E 135°27'0 0.0
2018-Apr-18 14:31N 34°33' E 135°27'0 0.0
2018-Apr-18 14:01N 34°33' E 135°27'0 0.0
2018-Apr-18 13:30N 34°33' E 135°27'0 0.0
2018-Apr-18 13:00N 34°33' E 135°27'0 0.0
2018-Apr-18 12:30N 34°33' E 135°27'0 0.0
2018-Apr-18 11:57N 34°33' E 135°27'0 0.0
2018-Apr-18 11:27N 34°33' E 135°27'0 0.0
2018-Apr-18 11:00N 34°33' E 135°27'0 0.0
2018-Apr-18 10:30N 34°33' E 135°27'0 0.0
2018-Apr-18 09:57N 34°33' E 135°27'0 0.0
2018-Apr-18 09:30N 34°33' E 135°27'0 0.0
2018-Apr-18 09:00N 34°33' E 135°27'0 0.0
2018-Apr-18 08:27N 34°33' E 135°27'0 0.0
2018-Apr-18 08:00N 34°33' E 135°27'0 0.0
2018-Apr-18 07:30N 34°33' E 135°27'0 0.0
2018-Apr-18 06:57N 34°33' E 135°27'0 0.0
2018-Apr-18 06:27N 34°33' E 135°27'0 0.0
2018-Apr-18 06:00N 34°33' E 135°27'0 0.0
2018-Apr-18 05:30N 34°33' E 135°27'0 0.0
2018-Apr-18 05:00N 34°33' E 135°27'0 0.0
2018-Apr-18 04:27N 34°33' E 135°27'0 0.0
2018-Apr-18 03:51N 34°33' E 135°27'0 0.0
2018-Apr-18 03:27N 34°33' E 135°27'0 0.0
2018-Apr-18 03:00N 34°33' E 135°27'0 0.0
2018-Apr-18 02:30N 34°33' E 135°27'0 0.0
2018-Apr-18 02:00N 34°33' E 135°27'0 0.0
2018-Apr-18 01:27N 34°33' E 135°27'0 0.0
2018-Apr-18 01:00N 34°33' E 135°27'0 0.0
2018-Apr-18 00:30N 34°33' E 135°27'0 0.0
2018-Apr-18 00:00N 34°33' E 135°27'0 0.0
2018-Apr-17 23:30N 34°33' E 135°27'0 0.0
2018-Apr-17 23:00N 34°33' E 135°27'0 0.0
2018-Apr-17 22:30N 34°33' E 135°27'0 0.0
2018-Apr-17 22:00N 34°33' E 135°27'0 0.0
2018-Apr-17 21:30N 34°33' E 135°27'0 0.0
2018-Apr-17 20:57N 34°33' E 135°27'0 0.0
2018-Apr-17 20:30N 34°33' E 135°27'0 0.0
2018-Apr-17 20:00N 34°33' E 135°27'0 0.0
2018-Apr-17 19:30N 34°33' E 135°27'0 0.0
2018-Apr-17 19:00N 34°33' E 135°27'0 0.0
2018-Apr-17 18:30N 34°33' E 135°27'0 0.0
2018-Apr-17 18:00N 34°33' E 135°27'0 0.0
2018-Apr-17 17:30N 34°33' E 135°27'0 0.0
2018-Apr-17 17:00N 34°33' E 135°27'0 0.0
2018-Apr-17 16:27N 34°33' E 135°27'0 0.0
2018-Apr-17 16:00N 34°33' E 135°27'0 0.0
2018-Apr-17 15:30N 34°33' E 135°27'0 0.0
2018-Apr-17 15:00N 34°33' E 135°27'0 0.0
2018-Apr-17 14:30N 34°33' E 135°27'0 0.0
2018-Apr-17 14:00N 34°33' E 135°27'0 0.0
2018-Apr-17 13:30N 34°33' E 135°27'0 0.0
2018-Apr-17 13:00N 34°33' E 135°27'0 0.0
2018-Apr-17 12:30N 34°33' E 135°27'0 0.0
2018-Apr-17 11:57N 34°33' E 135°27'0 0.0
2018-Apr-17 11:30N 34°33' E 135°27'0 0.0
2018-Apr-17 11:00N 34°33' E 135°27'0 0.0
2018-Apr-17 10:30N 34°33' E 135°27'0 0.0
2018-Apr-17 10:00N 34°33' E 135°27'0 0.0
2018-Apr-17 09:30N 34°33' E 135°27'0 0.0
2018-Apr-17 09:00N 34°33' E 135°27'0 0.0
2018-Apr-17 08:30N 34°33' E 135°27'0 0.0
2018-Apr-17 07:54N 34°33' E 135°27'0 0.0
2018-Apr-17 07:27N 34°33' E 135°27'3 6.1
2018-Apr-17 07:00N 34°33' E 135°23'612.4
2018-Apr-17 06:30N 34°28' E 135°19'611.3
2018-Apr-17 06:00N 34°24' E 135°13'611.6
2018-Apr-17 05:30N 34°21' E 135°08'611.2
2018-Apr-17 05:00N 34°17' E 135°03'3 6.9
2018-Apr-17 04:30N 34°17' E 134°59'713.5
2018-Apr-17 04:00N 34°24' E 135°01'713.0
2018-Apr-17 03:30N 34°30' E 135°04'4 8.4
2018-Apr-17 03:01N 34°34' E 135°06'510.0
2018-Apr-17 02:31N 34°37' E 135°01'612.4
2018-Apr-17 02:00N 34°35' E 134°54'612.4
2018-Apr-17 01:30N 34°33' E 134°47'611.4
2018-Apr-17 01:00N 34°36' E 134°42'612.4
2018-Apr-17 00:30N 34°43' E 134°41'3 2.9
2018-Apr-16 23:22N 34°46' E 134°41'2 3.7
2018-Apr-16 22:53N 34°46' E 134°39'5 0.2
2018-Apr-16 01:19N 34°41' E 134°41'310.6
2018-Apr-16 01:00N 34°38' E 134°41'611.4
2018-Apr-16 00:30N 34°33' E 134°44'714.2
2018-Apr-16 00:00N 34°35' E 134°53'713.6
2018-Apr-15 23:30N 34°38' E 135°00'510.7
2018-Apr-15 23:00N 34°36' E 135°06'3 5.9
2018-Apr-15 22:30N 34°33' E 135°08'510.1
2018-Apr-15 22:00N 34°28' E 135°06'612.0
2018-Apr-15 21:30N 34°23' E 135°03'612.9
2018-Apr-15 21:00N 34°17' E 134°59'5 9.9
2018-Apr-15 20:30N 34°12' E 134°58'4 8.6
2018-Apr-15 20:00N 34°08' E 134°59'612.2
2018-Apr-15 19:30N 34°14' E 135°02'611.8
2018-Apr-15 19:00N 34°19' E 135°04'612.5
2018-Apr-15 18:31N 34°23' E 135°11'612.8
2018-Apr-15 18:00N 34°26' E 135°17'612.6
2018-Apr-15 17:30N 34°31' E 135°22'4 7.8
2018-Apr-15 16:56N 34°33' E 135°27'0 0.0
2018-Apr-15 16:29N 34°33' E 135°27'0 0.0
2018-Apr-15 15:59N 34°33' E 135°27'0 0.0
2018-Apr-15 15:29N 34°33' E 135°27'0 0.0
2018-Apr-15 14:59N 34°33' E 135°27'0 0.0
2018-Apr-15 14:29N 34°33' E 135°27'0 0.0
2018-Apr-15 13:59N 34°33' E 135°27'0 0.0
2018-Apr-15 13:29N 34°33' E 135°27'0 0.0
2018-Apr-15 12:59N 34°33' E 135°27'0 0.0
2018-Apr-15 12:29N 34°33' E 135°27'0 0.0
2018-Apr-15 11:59N 34°33' E 135°27'0 0.0
2018-Apr-15 11:29N 34°33' E 135°27'0 0.0
2018-Apr-15 10:59N 34°33' E 135°27'0 0.0
2018-Apr-15 10:29N 34°33' E 135°27'0 0.0
2018-Apr-15 09:59N 34°33' E 135°27'0 0.0
2018-Apr-15 09:29N 34°33' E 135°27'0 0.0
2018-Apr-15 08:59N 34°33' E 135°27'0 0.0
2018-Apr-15 08:29N 34°33' E 135°27'0 0.0
2018-Apr-15 07:59N 34°33' E 135°27'0 0.0
2018-Apr-15 07:26N 34°33' E 135°27'0 0.0
2018-Apr-15 06:59N 34°33' E 135°27'0 0.0
2018-Apr-15 06:29N 34°33' E 135°27'0 0.0
2018-Apr-15 05:59N 34°33' E 135°27'0 0.0
2018-Apr-15 05:29N 34°33' E 135°27'0 0.0
2018-Apr-15 04:59N 34°33' E 135°27'0 0.9
2018-Apr-15 04:30N 34°33' E 135°26'1 1.9
2018-Apr-15 03:58N 34°33' E 135°25'0 0.5
2018-Apr-15 03:30N 34°33' E 135°25'1 2.3
2018-Apr-15 03:00N 34°33' E 135°26'0 0.8
2018-Apr-15 02:28N 34°33' E 135°27'0 0.0
2018-Apr-15 01:58N 34°33' E 135°27'0 0.0
2018-Apr-15 01:28N 34°33' E 135°27'0 0.0
2018-Apr-15 00:55N 34°33' E 135°27'0 0.0
2018-Apr-15 00:28N 34°33' E 135°27'0 0.0
2018-Apr-14 23:58N 34°33' E 135°27'1 1.3
2018-Apr-14 23:30N 34°33' E 135°26'5 9.2
2018-Apr-14 23:00N 34°37' E 135°23'1 2.8
2018-Apr-14 22:30N 34°39' E 135°24'1 2.8
2018-Apr-14 22:00N 34°38' E 135°23'4 8.9
2018-Apr-14 21:31N 34°33' E 135°24'2 3.6
2018-Apr-14 21:00N 34°33' E 135°27'0 0.0
2018-Apr-14 20:30N 34°33' E 135°27'0 0.0
2018-Apr-14 20:00N 34°33' E 135°27'0 0.0
2018-Apr-14 19:30N 34°33' E 135°27'0 0.0
2018-Apr-14 18:57N 34°33' E 135°27'0 0.0
2018-Apr-14 18:30N 34°33' E 135°27'0 0.0
2018-Apr-14 17:57N 34°33' E 135°27'0 0.0
2018-Apr-14 17:27N 34°33' E 135°27'0 0.0
2018-Apr-14 16:57N 34°33' E 135°27'0 0.0
2018-Apr-14 16:27N 34°33' E 135°27'0 0.0
2018-Apr-14 15:57N 34°33' E 135°27'0 0.0
2018-Apr-14 15:27N 34°33' E 135°27'0 0.0
2018-Apr-14 14:57N 34°33' E 135°27'0 0.0
2018-Apr-14 14:27N 34°33' E 135°27'0 0.0
2018-Apr-14 14:00N 34°33' E 135°27'0 0.0
2018-Apr-14 13:29N 34°33' E 135°27'0 0.0
2018-Apr-14 12:59N 34°33' E 135°27'0 0.0
2018-Apr-14 12:29N 34°33' E 135°27'0 0.0
2018-Apr-14 11:59N 34°33' E 135°27'0 0.0
2018-Apr-14 11:29N 34°33' E 135°27'0 0.0
2018-Apr-14 10:59N 34°33' E 135°27'0 0.0
2018-Apr-14 10:29N 34°33' E 135°27'0 0.0
2018-Apr-14 09:53N 34°33' E 135°27'0 0.0
2018-Apr-14 09:29N 34°33' E 135°27'0 0.0
2018-Apr-14 08:56N 34°33' E 135°27'0 0.0
2018-Apr-14 08:29N 34°33' E 135°27'0 0.0
2018-Apr-14 07:59N 34°33' E 135°27'0 0.0
2018-Apr-14 07:23N 34°33' E 135°27'0 0.0
2018-Apr-14 06:59N 34°33' E 135°27'0 0.0
2018-Apr-14 06:29N 34°33' E 135°27'4 8.5
2018-Apr-14 06:00N 34°32' E 135°22'612.9
2018-Apr-14 05:30N 34°29' E 135°15'612.9
2018-Apr-14 05:00N 34°25' E 135°09'612.5
2018-Apr-14 04:30N 34°21' E 135°03'3 6.5
2018-Apr-14 04:00N 34°20' E 134°59'713.5
2018-Apr-14 03:30N 34°27' E 135°02'611.7
2018-Apr-14 03:00N 34°32' E 135°04'510.1
2018-Apr-14 02:30N 34°37' E 135°02'714.3
2018-Apr-14 02:00N 34°35' E 134°53'713.9
2018-Apr-14 01:30N 34°33' E 134°45'611.9
2018-Apr-14 01:00N 34°38' E 134°42'612.0
2018-Apr-14 00:30N 34°44' E 134°41'2 2.0
2018-Apr-13 23:26N 34°46' E 134°41'1 2.8
2018-Apr-13 22:58N 34°46' E 134°39'1 0.2
2018-Apr-13 19:00N 34°47' E 134°39'  
Track history (hours):
 
Tides and Currents Weather Stations Pressure Air Temp Water Temp Dewpoint Dewpoint Depression Visibility Wind Speed Wind Dir Waves Ship Positions

Kasagimaru

Last reported at 2018-Apr-23 09:25 UTC. Time now 2018-Apr-23 09:44 UTC.
Position N 34°33' E 135°27'.

Length 42 m; draft 3.5 m.

Type: Tug. MMSI: 431300268.

Date/timePositionNaut miles runAvg speedWind from/ knotsBaromVisibWave heightAir tempDewpointWater temp
2018-Apr-23 09:25N 34°33' E 135°27'0 0.0
2018-Apr-23 08:58N 34°33' E 135°27'0 0.0
2018-Apr-23 08:31N 34°33' E 135°27'0 0.0
2018-Apr-23 08:00N 34°33' E 135°27'4 7.8
2018-Apr-23 07:30N 34°36' E 135°23'2 4.1
2018-Apr-23 07:00N 34°38' E 135°25'0 0.0
2018-Apr-23 06:30N 34°38' E 135°25'1 1.2
2018-Apr-23 06:00N 34°38' E 135°24'0 0.0
2018-Apr-23 05:30N 34°38' E 135°24'0 0.4
2018-Apr-23 05:00N 34°38' E 135°24'1 2.3
2018-Apr-23 04:30N 34°39' E 135°24'2 4.9
2018-Apr-23 04:00N 34°36' E 135°23'4 8.7
2018-Apr-23 03:30N 34°33' E 135°27'0 0.1
2018-Apr-23 02:59N 34°33' E 135°27'0 0.0
2018-Apr-23 02:29N 34°33' E 135°27'0 0.0
2018-Apr-23 01:59N 34°33' E 135°27'0 0.0
2018-Apr-23 01:29N 34°33' E 135°27'0 0.0
2018-Apr-23 00:59N 34°33' E 135°27'0 0.0
2018-Apr-23 00:26N 34°33' E 135°27'0 0.0
2018-Apr-22 23:59N 34°33' E 135°27'0 0.0
2018-Apr-22 23:29N 34°33' E 135°27'0 0.0
2018-Apr-22 22:59N 34°33' E 135°27'0 0.0
2018-Apr-22 22:26N 34°33' E 135°27'0 0.0
2018-Apr-22 21:59N 34°33' E 135°27'0 0.0
2018-Apr-22 21:29N 34°33' E 135°27'0 0.0
2018-Apr-22 20:59N 34°33' E 135°27'0 0.0
2018-Apr-22 20:29N 34°33' E 135°27'0 0.0
2018-Apr-22 19:56N 34°33' E 135°27'0 0.0
2018-Apr-22 19:29N 34°33' E 135°27'0 0.0
2018-Apr-22 18:59N 34°33' E 135°27'0 0.0
2018-Apr-22 18:29N 34°33' E 135°27'0 0.0
2018-Apr-22 17:59N 34°33' E 135°27'0 0.0
2018-Apr-22 17:29N 34°33' E 135°27'0 0.0
2018-Apr-22 16:56N 34°33' E 135°27'0 0.0
2018-Apr-22 16:29N 34°33' E 135°27'0 0.0
2018-Apr-22 15:59N 34°33' E 135°27'0 0.0
2018-Apr-22 15:29N 34°33' E 135°27'0 0.0
2018-Apr-22 14:59N 34°33' E 135°27'0 0.0
2018-Apr-22 14:29N 34°33' E 135°27'0 0.0
2018-Apr-22 13:59N 34°33' E 135°27'0 0.0
2018-Apr-22 13:29N 34°33' E 135°27'0 0.0
2018-Apr-22 12:59N 34°33' E 135°27'0 0.0
2018-Apr-22 12:29N 34°33' E 135°27'0 0.0
2018-Apr-22 11:59N 34°33' E 135°27'0 0.0
2018-Apr-22 11:29N 34°33' E 135°27'0 0.0
2018-Apr-22 10:59N 34°33' E 135°27'0 0.0
2018-Apr-22 10:29N 34°33' E 135°27'0 0.0
2018-Apr-22 09:59N 34°33' E 135°27'0 0.0
2018-Apr-22 09:29N 34°33' E 135°27'0 0.0
2018-Apr-22 08:59N 34°33' E 135°27'0 0.0
2018-Apr-22 08:29N 34°33' E 135°27'0 0.0
2018-Apr-22 07:59N 34°33' E 135°27'0 0.0
2018-Apr-22 07:29N 34°33' E 135°27'0 0.0
2018-Apr-22 06:59N 34°33' E 135°27'0 0.0
2018-Apr-22 06:29N 34°33' E 135°27'0 0.0
2018-Apr-22 05:59N 34°33' E 135°27'0 0.0
2018-Apr-22 05:26N 34°33' E 135°27'0 0.0
2018-Apr-22 04:59N 34°33' E 135°27'0 0.0
2018-Apr-22 04:29N 34°33' E 135°27'0 0.0
2018-Apr-22 03:59N 34°33' E 135°27'0 0.0
2018-Apr-22 03:29N 34°33' E 135°27'0 0.0
2018-Apr-22 02:59N 34°33' E 135°27'0 0.0
2018-Apr-22 02:29N 34°33' E 135°27'0 0.0
2018-Apr-22 01:56N 34°33' E 135°27'0 0.0
2018-Apr-22 01:29N 34°33' E 135°27'0 0.0
2018-Apr-22 00:56N 34°33' E 135°27'2 3.6
2018-Apr-22 00:30N 34°33' E 135°25'1 1.7
2018-Apr-22 00:00N 34°33' E 135°25'0 0.4
2018-Apr-21 23:30N 34°33' E 135°25'1 2.5
2018-Apr-21 22:59N 34°33' E 135°27'0 0.0
2018-Apr-21 22:30N 34°33' E 135°27'0 0.0
2018-Apr-21 21:59N 34°33' E 135°27'0 0.0
2018-Apr-21 21:23N 34°33' E 135°27'0 0.0
2018-Apr-21 20:59N 34°33' E 135°27'0 0.0
2018-Apr-21 20:29N 34°33' E 135°27'0 0.0
2018-Apr-21 19:56N 34°33' E 135°27'0 0.0
2018-Apr-21 19:26N 34°33' E 135°27'0 0.0
2018-Apr-21 18:59N 34°33' E 135°27'0 0.0
2018-Apr-21 18:29N 34°33' E 135°27'0 0.0
2018-Apr-21 17:59N 34°33' E 135°27'0 0.0
2018-Apr-21 17:29N 34°33' E 135°27'0 0.0
2018-Apr-21 16:59N 34°33' E 135°27'0 0.0
2018-Apr-21 16:29N 34°33' E 135°27'0 0.0
2018-Apr-21 15:59N 34°33' E 135°27'0 0.0
2018-Apr-21 15:29N 34°33' E 135°27'0 0.0
2018-Apr-21 14:59N 34°33' E 135°27'0 0.0
2018-Apr-21 14:29N 34°33' E 135°27'0 0.0
2018-Apr-21 13:59N 34°33' E 135°27'0 0.0
2018-Apr-21 13:29N 34°33' E 135°27'0 0.0
2018-Apr-21 12:59N 34°33' E 135°27'0 0.0
2018-Apr-21 12:29N 34°33' E 135°27'0 0.0
2018-Apr-21 11:59N 34°33' E 135°27'0 0.0
2018-Apr-21 11:29N 34°33' E 135°27'0 0.0
2018-Apr-21 10:59N 34°33' E 135°27'0 0.0
2018-Apr-21 10:29N 34°33' E 135°27'0 0.0
2018-Apr-21 09:59N 34°33' E 135°27'0 0.0
2018-Apr-21 09:29N 34°33' E 135°27'1 1.1
2018-Apr-21 09:00N 34°33' E 135°26'611.3
2018-Apr-21 08:30N 34°31' E 135°20'612.1
2018-Apr-21 08:01N 34°28' E 135°14'611.8
2018-Apr-21 07:30N 34°24' E 135°08'611.9
2018-Apr-21 07:00N 34°20' E 135°03'510.9
2018-Apr-21 06:31N 34°16' E 134°59'713.6
2018-Apr-21 06:00N 34°23' E 135°00'612.4
2018-Apr-21 05:31N 34°28' E 135°04'511.0
2018-Apr-21 05:00N 34°33' E 135°07'4 8.7
2018-Apr-21 04:31N 34°36' E 135°03'611.3
2018-Apr-21 04:00N 34°36' E 134°57'714.2
2018-Apr-21 03:30N 34°33' E 134°49'611.2
2018-Apr-21 03:00N 34°34' E 134°42'613.0
2018-Apr-21 02:31N 34°41' E 134°41'5 9.8
2018-Apr-21 02:00N 34°46' E 134°41'0 0.5
2018-Apr-21 01:30N 34°46' E 134°41'1 2.2
2018-Apr-21 00:55N 34°46' E 134°40'1 0.1
2018-Apr-20 14:22N 34°47' E 134°39'0 0.0
2018-Apr-20 13:52N 34°47' E 134°39'0 0.0
2018-Apr-20 12:27N 34°47' E 134°39'0 0.0
2018-Apr-20 04:19N 34°47' E 134°39'2 1.6
2018-Apr-20 03:04N 34°46' E 134°41'1 3.6
2018-Apr-20 02:51N 34°45' E 134°41'2 5.4
2018-Apr-20 02:30N 34°43' E 134°41'612.1
2018-Apr-20 02:00N 34°37' E 134°42'510.3
2018-Apr-20 01:30N 34°34' E 134°47'713.8
2018-Apr-20 01:00N 34°36' E 134°55'611.6
2018-Apr-20 00:30N 34°37' E 135°02'510.0
2018-Apr-20 00:00N 34°36' E 135°07'3 6.3
2018-Apr-19 23:30N 34°33' E 135°10'5 9.9
2018-Apr-19 23:00N 34°29' E 135°07'612.2
2018-Apr-19 22:30N 34°23' E 135°03'510.9
2018-Apr-19 22:00N 34°18' E 135°00'5 9.3
2018-Apr-19 21:30N 34°14' E 134°60'3 6.8
2018-Apr-19 21:00N 34°11' E 135°02'612.2
2018-Apr-19 20:31N 34°13' E 135°09'0 0.0
2018-Apr-19 20:00N 34°13' E 135°09'0 0.0
2018-Apr-19 19:30N 34°13' E 135°09'0 0.0
2018-Apr-19 19:00N 34°13' E 135°09'0 0.0
2018-Apr-19 18:30N 34°13' E 135°09'0 0.0
2018-Apr-19 18:00N 34°13' E 135°09'0 0.0
2018-Apr-19 17:30N 34°13' E 135°09'0 0.0
2018-Apr-19 17:00N 34°13' E 135°09'0 0.0
2018-Apr-19 16:30N 34°13' E 135°09'0 0.0
2018-Apr-19 16:00N 34°13' E 135°09'0 0.0
2018-Apr-19 15:30N 34°13' E 135°09'0 0.0
2018-Apr-19 15:00N 34°13' E 135°09'0 0.0
2018-Apr-19 14:30N 34°13' E 135°09'0 0.0
2018-Apr-19 14:00N 34°13' E 135°09'0 0.0
2018-Apr-19 13:30N 34°13' E 135°09'0 0.0
2018-Apr-19 13:00N 34°13' E 135°09'0 0.0
2018-Apr-19 12:30N 34°13' E 135°09'0 0.0
2018-Apr-19 12:00N 34°13' E 135°09'0 0.0
2018-Apr-19 11:30N 34°13' E 135°09'0 0.0
2018-Apr-19 11:00N 34°13' E 135°09'0 0.0
2018-Apr-19 10:30N 34°13' E 135°09'0 0.0
2018-Apr-19 10:00N 34°13' E 135°09'0 0.0
2018-Apr-19 09:30N 34°13' E 135°09'0 0.0
2018-Apr-19 09:01N 34°13' E 135°09'0 0.0
2018-Apr-19 08:30N 34°13' E 135°09'0 0.0
2018-Apr-19 08:00N 34°13' E 135°09'0 0.0
2018-Apr-19 07:30N 34°13' E 135°09'0 0.0
2018-Apr-19 07:00N 34°13' E 135°09'0 0.0
2018-Apr-19 06:30N 34°13' E 135°09'0 0.0
2018-Apr-19 06:00N 34°13' E 135°09'0 0.0
2018-Apr-19 05:30N 34°13' E 135°09'0 0.0
2018-Apr-19 05:00N 34°13' E 135°09'0 0.0
2018-Apr-19 04:31N 34°13' E 135°09'5 9.1
2018-Apr-19 04:01N 34°15' E 135°04'612.2
2018-Apr-19 03:31N 34°20' E 135°07'612.8
2018-Apr-19 03:00N 34°24' E 135°13'612.4
2018-Apr-19 02:31N 34°28' E 135°19'5 9.9
2018-Apr-19 02:01N 34°31' E 135°23'2 4.5
2018-Apr-19 01:31N 34°33' E 135°25'2 3.3
2018-Apr-19 01:00N 34°33' E 135°27'0 0.0
2018-Apr-19 00:29N 34°33' E 135°27'0 0.0
2018-Apr-19 00:00N 34°33' E 135°27'0 0.0
2018-Apr-18 23:30N 34°33' E 135°27'0 0.0
2018-Apr-18 23:01N 34°33' E 135°27'0 0.0
2018-Apr-18 22:28N 34°33' E 135°27'0 0.0
2018-Apr-18 21:58N 34°33' E 135°27'0 0.0
2018-Apr-18 21:19N 34°33' E 135°27'0 0.0
2018-Apr-18 20:58N 34°33' E 135°27'0 0.0
2018-Apr-18 20:28N 34°33' E 135°27'0 0.0
2018-Apr-18 19:58N 34°33' E 135°27'0 0.0
2018-Apr-18 19:28N 34°33' E 135°27'0 0.0
2018-Apr-18 18:58N 34°33' E 135°27'0 0.0
2018-Apr-18 18:28N 34°33' E 135°27'0 0.0
2018-Apr-18 17:58N 34°33' E 135°27'0 0.0
2018-Apr-18 17:28N 34°33' E 135°27'0 0.0
2018-Apr-18 16:58N 34°33' E 135°27'0 0.0
2018-Apr-18 16:28N 34°33' E 135°27'0 0.0
2018-Apr-18 16:01N 34°33' E 135°27'0 0.0
2018-Apr-18 15:28N 34°33' E 135°27'0 0.0
2018-Apr-18 15:01N 34°33' E 135°27'0 0.0
2018-Apr-18 14:31N 34°33' E 135°27'0 0.0
2018-Apr-18 14:01N 34°33' E 135°27'0 0.0
2018-Apr-18 13:30N 34°33' E 135°27'0 0.0
2018-Apr-18 13:00N 34°33' E 135°27'0 0.0
2018-Apr-18 12:30N 34°33' E 135°27'0 0.0
2018-Apr-18 11:57N 34°33' E 135°27'0 0.0
2018-Apr-18 11:27N 34°33' E 135°27'0 0.0
2018-Apr-18 11:00N 34°33' E 135°27'0 0.0
2018-Apr-18 10:30N 34°33' E 135°27'0 0.0
2018-Apr-18 09:57N 34°33' E 135°27'0 0.0
2018-Apr-18 09:30N 34°33' E 135°27'0 0.0
2018-Apr-18 09:00N 34°33' E 135°27'0 0.0
2018-Apr-18 08:27N 34°33' E 135°27'0 0.0
2018-Apr-18 08:00N 34°33' E 135°27'0 0.0
2018-Apr-18 07:30N 34°33' E 135°27'0 0.0
2018-Apr-18 06:57N 34°33' E 135°27'0 0.0
2018-Apr-18 06:27N 34°33' E 135°27'0 0.0
2018-Apr-18 06:00N 34°33' E 135°27'0 0.0
2018-Apr-18 05:30N 34°33' E 135°27'0 0.0
2018-Apr-18 05:00N 34°33' E 135°27'0 0.0
2018-Apr-18 04:27N 34°33' E 135°27'0 0.0
2018-Apr-18 03:51N 34°33' E 135°27'0 0.0
2018-Apr-18 03:27N 34°33' E 135°27'0 0.0
2018-Apr-18 03:00N 34°33' E 135°27'0 0.0
2018-Apr-18 02:30N 34°33' E 135°27'0 0.0
2018-Apr-18 02:00N 34°33' E 135°27'0 0.0
2018-Apr-18 01:27N 34°33' E 135°27'0 0.0
2018-Apr-18 01:00N 34°33' E 135°27'0 0.0
2018-Apr-18 00:30N 34°33' E 135°27'0 0.0
2018-Apr-18 00:00N 34°33' E 135°27'0 0.0
2018-Apr-17 23:30N 34°33' E 135°27'0 0.0
2018-Apr-17 23:00N 34°33' E 135°27'0 0.0
2018-Apr-17 22:30N 34°33' E 135°27'0 0.0
2018-Apr-17 22:00N 34°33' E 135°27'0 0.0
2018-Apr-17 21:30N 34°33' E 135°27'0 0.0
2018-Apr-17 20:57N 34°33' E 135°27'0 0.0
2018-Apr-17 20:30N 34°33' E 135°27'0 0.0
2018-Apr-17 20:00N 34°33' E 135°27'0 0.0
2018-Apr-17 19:30N 34°33' E 135°27'0 0.0
2018-Apr-17 19:00N 34°33' E 135°27'0 0.0
2018-Apr-17 18:30N 34°33' E 135°27'0 0.0
2018-Apr-17 18:00N 34°33' E 135°27'0 0.0
2018-Apr-17 17:30N 34°33' E 135°27'0 0.0
2018-Apr-17 17:00N 34°33' E 135°27'0 0.0
2018-Apr-17 16:27N 34°33' E 135°27'0 0.0
2018-Apr-17 16:00N 34°33' E 135°27'0 0.0
2018-Apr-17 15:30N 34°33' E 135°27'0 0.0
2018-Apr-17 15:00N 34°33' E 135°27'0 0.0
2018-Apr-17 14:30N 34°33' E 135°27'0 0.0
2018-Apr-17 14:00N 34°33' E 135°27'0 0.0
2018-Apr-17 13:30N 34°33' E 135°27'0 0.0
2018-Apr-17 13:00N 34°33' E 135°27'0 0.0
2018-Apr-17 12:30N 34°33' E 135°27'0 0.0
2018-Apr-17 11:57N 34°33' E 135°27'0 0.0
2018-Apr-17 11:30N 34°33' E 135°27'0 0.0
2018-Apr-17 11:00N 34°33' E 135°27'0 0.0
2018-Apr-17 10:30N 34°33' E 135°27'0 0.0
2018-Apr-17 10:00N 34°33' E 135°27'0 0.0
2018-Apr-17 09:30N 34°33' E 135°27'0 0.0
2018-Apr-17 09:00N 34°33' E 135°27'0 0.0
2018-Apr-17 08:30N 34°33' E 135°27'0 0.0
2018-Apr-17 07:54N 34°33' E 135°27'0 0.0
2018-Apr-17 07:27N 34°33' E 135°27'3 6.1
2018-Apr-17 07:00N 34°33' E 135°23'612.4
2018-Apr-17 06:30N 34°28' E 135°19'611.3
2018-Apr-17 06:00N 34°24' E 135°13'611.6
2018-Apr-17 05:30N 34°21' E 135°08'611.2
2018-Apr-17 05:00N 34°17' E 135°03'3 6.9
2018-Apr-17 04:30N 34°17' E 134°59'713.5
2018-Apr-17 04:00N 34°24' E 135°01'713.0
2018-Apr-17 03:30N 34°30' E 135°04'4 8.4
2018-Apr-17 03:01N 34°34' E 135°06'510.0
2018-Apr-17 02:31N 34°37' E 135°01'612.4
2018-Apr-17 02:00N 34°35' E 134°54'612.4
2018-Apr-17 01:30N 34°33' E 134°47'611.4
2018-Apr-17 01:00N 34°36' E 134°42'612.4
2018-Apr-17 00:30N 34°43' E 134°41'3 2.9
2018-Apr-16 23:22N 34°46' E 134°41'2 3.7
2018-Apr-16 22:53N 34°46' E 134°39'5 0.2
2018-Apr-16 01:19N 34°41' E 134°41'310.6
2018-Apr-16 01:00N 34°38' E 134°41'611.4
2018-Apr-16 00:30N 34°33' E 134°44'714.2
2018-Apr-16 00:00N 34°35' E 134°53'713.6
2018-Apr-15 23:30N 34°38' E 135°00'510.7
2018-Apr-15 23:00N 34°36' E 135°06'3 5.9
2018-Apr-15 22:30N 34°33' E 135°08'510.1
2018-Apr-15 22:00N 34°28' E 135°06'612.0
2018-Apr-15 21:30N 34°23' E 135°03'612.9
2018-Apr-15 21:00N 34°17' E 134°59'5 9.9
2018-Apr-15 20:30N 34°12' E 134°58'4 8.6
2018-Apr-15 20:00N 34°08' E 134°59'612.2
2018-Apr-15 19:30N 34°14' E 135°02'611.8
2018-Apr-15 19:00N 34°19' E 135°04'612.5
2018-Apr-15 18:31N 34°23' E 135°11'612.8
2018-Apr-15 18:00N 34°26' E 135°17'612.6
2018-Apr-15 17:30N 34°31' E 135°22'4 7.8
2018-Apr-15 16:56N 34°33' E 135°27'0 0.0
2018-Apr-15 16:29N 34°33' E 135°27'0 0.0
2018-Apr-15 15:59N 34°33' E 135°27'0 0.0
2018-Apr-15 15:29N 34°33' E 135°27'0 0.0
2018-Apr-15 14:59N 34°33' E 135°27'0 0.0
2018-Apr-15 14:29N 34°33' E 135°27'0 0.0
2018-Apr-15 13:59N 34°33' E 135°27'0 0.0
2018-Apr-15 13:29N 34°33' E 135°27'0 0.0
2018-Apr-15 12:59N 34°33' E 135°27'0 0.0
2018-Apr-15 12:29N 34°33' E 135°27'0 0.0
2018-Apr-15 11:59N 34°33' E 135°27'0 0.0
2018-Apr-15 11:29N 34°33' E 135°27'0 0.0
2018-Apr-15 10:59N 34°33' E 135°27'0 0.0
2018-Apr-15 10:29N 34°33' E 135°27'0 0.0
2018-Apr-15 09:59N 34°33' E 135°27'0 0.0
2018-Apr-15 09:29N 34°33' E 135°27'0 0.0
2018-Apr-15 08:59N 34°33' E 135°27'0 0.0
2018-Apr-15 08:29N 34°33' E 135°27'0 0.0
2018-Apr-15 07:59N 34°33' E 135°27'0 0.0
2018-Apr-15 07:26N 34°33' E 135°27'0 0.0
2018-Apr-15 06:59N 34°33' E 135°27'0 0.0
2018-Apr-15 06:29N 34°33' E 135°27'0 0.0
2018-Apr-15 05:59N 34°33' E 135°27'0 0.0
2018-Apr-15 05:29N 34°33' E 135°27'0 0.0
2018-Apr-15 04:59N 34°33' E 135°27'0 0.9
2018-Apr-15 04:30N 34°33' E 135°26'1 1.9
2018-Apr-15 03:58N 34°33' E 135°25'0 0.5
2018-Apr-15 03:30N 34°33' E 135°25'1 2.3
2018-Apr-15 03:00N 34°33' E 135°26'0 0.8
2018-Apr-15 02:28N 34°33' E 135°27'0 0.0
2018-Apr-15 01:58N 34°33' E 135°27'0 0.0
2018-Apr-15 01:28N 34°33' E 135°27'0 0.0
2018-Apr-15 00:55N 34°33' E 135°27'0 0.0
2018-Apr-15 00:28N 34°33' E 135°27'0 0.0
2018-Apr-14 23:58N 34°33' E 135°27'1 1.3
2018-Apr-14 23:30N 34°33' E 135°26'5 9.2
2018-Apr-14 23:00N 34°37' E 135°23'1 2.8
2018-Apr-14 22:30N 34°39' E 135°24'1 2.8
2018-Apr-14 22:00N 34°38' E 135°23'4 8.9
2018-Apr-14 21:31N 34°33' E 135°24'2 3.6
2018-Apr-14 21:00N 34°33' E 135°27'0 0.0
2018-Apr-14 20:30N 34°33' E 135°27'0 0.0
2018-Apr-14 20:00N 34°33' E 135°27'0 0.0
2018-Apr-14 19:30N 34°33' E 135°27'0 0.0
2018-Apr-14 18:57N 34°33' E 135°27'0 0.0
2018-Apr-14 18:30N 34°33' E 135°27'0 0.0
2018-Apr-14 17:57N 34°33' E 135°27'0 0.0
2018-Apr-14 17:27N 34°33' E 135°27'0 0.0
2018-Apr-14 16:57N 34°33' E 135°27'0 0.0
2018-Apr-14 16:27N 34°33' E 135°27'0 0.0
2018-Apr-14 15:57N 34°33' E 135°27'0 0.0
2018-Apr-14 15:27N 34°33' E 135°27'0 0.0
2018-Apr-14 14:57N 34°33' E 135°27'0 0.0
2018-Apr-14 14:27N 34°33' E 135°27'0 0.0
2018-Apr-14 14:00N 34°33' E 135°27'0 0.0
2018-Apr-14 13:29N 34°33' E 135°27'0 0.0
2018-Apr-14 12:59N 34°33' E 135°27'0 0.0
2018-Apr-14 12:29N 34°33' E 135°27'0 0.0
2018-Apr-14 11:59N 34°33' E 135°27'0 0.0
2018-Apr-14 11:29N 34°33' E 135°27'0 0.0
2018-Apr-14 10:59N 34°33' E 135°27'0 0.0
2018-Apr-14 10:29N 34°33' E 135°27'0 0.0
2018-Apr-14 09:53N 34°33' E 135°27'0 0.0
2018-Apr-14 09:29N 34°33' E 135°27'0 0.0
2018-Apr-14 08:56N 34°33' E 135°27'0 0.0
2018-Apr-14 08:29N 34°33' E 135°27'0 0.0
2018-Apr-14 07:59N 34°33' E 135°27'0 0.0
2018-Apr-14 07:23N 34°33' E 135°27'0 0.0
2018-Apr-14 06:59N 34°33' E 135°27'0 0.0
2018-Apr-14 06:29N 34°33' E 135°27'4 8.5
2018-Apr-14 06:00N 34°32' E 135°22'612.9
2018-Apr-14 05:30N 34°29' E 135°15'612.9
2018-Apr-14 05:00N 34°25' E 135°09'612.5
2018-Apr-14 04:30N 34°21' E 135°03'3 6.5
2018-Apr-14 04:00N 34°20' E 134°59'713.5
2018-Apr-14 03:30N 34°27' E 135°02'611.7
2018-Apr-14 03:00N 34°32' E 135°04'510.1
2018-Apr-14 02:30N 34°37' E 135°02'714.3
2018-Apr-14 02:00N 34°35' E 134°53'713.9
2018-Apr-14 01:30N 34°33' E 134°45'611.9
2018-Apr-14 01:00N 34°38' E 134°42'612.0
2018-Apr-14 00:30N 34°44' E 134°41'2 2.0
2018-Apr-13 23:26N 34°46' E 134°41'1 2.8
2018-Apr-13 22:58N 34°46' E 134°39'1 0.2
2018-Apr-13 19:00N 34°47' E 134°39'  

Dump ship's entire track history